This is the latest recevied weather packets stored in our database for station/object OE-11073. If no packets are shown the sender has not sent any weather packets the latest 10 day(s).
| Time | Temp. | Humidity | Pressure | Rain* | Wind** | Luminosity | Snow |
|---|---|---|---|---|---|---|---|
| 1788002710 | 19.44° C | 62% | - | 0 mm | - | 536 W/m² | - |
| 1788001883 | 19.44° C | 61% | - | 0 mm | - | 719 W/m² | - |
| 1788001509 | 19.44° C | 65% | - | 0 mm | - | 673 W/m² | - |
| 1788000910 | 18.89° C | 64% | - | 0 mm | - | 543 W/m² | - |
| 1788000083 | 18.33° C | 65% | - | 0 mm | - | 604 W/m² | - |
| 1787999710 | 18.33° C | 68% | - | 0 mm | - | 734 W/m² | - |
| 1787999110 | 17.78° C | 68% | - | 0 mm | - | 444 W/m² | - |
| 1787998283 | 17.78° C | 69% | - | 0 mm | - | 383 W/m² | - |
| 1787997909 | 17.22° C | 66% | - | 0 mm | - | 421 W/m² | - |
| 1787997310 | 17.22° C | 69% | - | 0 mm | - | 398 W/m² | - |
| 1787996483 | 16.67° C | 70% | - | 0 mm | - | 306 W/m² | - |
| 1787996110 | 16.67° C | 71% | - | 0 mm | - | 375 W/m² | - |
| 1787995510 | 16.67° C | 71% | - | 0 mm | - | 428 W/m² | - |
| 1787994683 | 17.22° C | 76% | - | 0 mm | - | 581 W/m² | - |
| 1787994310 | 16.11° C | 74% | - | 0 mm | - | 383 W/m² | - |
| 1787993710 | 16.11° C | 71% | - | 0 mm | - | 497 W/m² | - |
| 1787992882 | 16.67° C | 71% | - | 0 mm | - | 536 W/m² | - |
| 1787992509 | 15.56° C | 74% | - | 0 mm | - | 367 W/m² | - |
| 1787991910 | 16.11° C | 78% | - | 0 mm | - | 360 W/m² | - |
| 1787991083 | 15° C | 77% | - | 0 mm | - | 306 W/m² | - |
| 1787990709 | 15° C | 82% | - | 0 mm | - | 222 W/m² | - |
| 1787990110 | 15° C | 83% | - | 0 mm | - | 176 W/m² | - |
| 1787989282 | 14.44° C | 83% | - | 0 mm | - | 184 W/m² | - |
| 1787988910 | 14.44° C | 85% | - | 0 mm | - | 161 W/m² | - |
| 1787988309 | 14.44° C | 85% | - | 0 mm | - | 107 W/m² | - |
* Rain latest hour (hover to see other rain measurements)
** Current wind speed in m/s (hover to see current wind gust speed)